Flag for Germany

Past Weather in 52°23'59"N, 13°04'00"E, Germany — Yesterday and Last 2 Weeks

Currently: 57 °F. Partly sunny. (Weather station: Berlin-Schoenefeld, Germany). See more current weather

Past Weather in 52°23'59"N, 13°04'00"E — Graph

°F

52°23'59"N, 13°04'00"E Temperature Yesterday

Maximum temperature yesterday: 73 °F (at 2:20 pm)
Minimum temperature yesterday: 57 °F (at 1:50 am)
Average temperature yesterday: 66 °F

High & Low Weather Summary for the Past Weeks

 TemperatureHumidityPressure
High82 °F (Jun 21, 1:50 pm)100% (Jun 11, 12:20 am)30.24 "Hg (Jun 11, 12:20 am)
Low45 °F (Jun 12, 3:20 am)29% (Jun 9, 4:50 pm)29.65 "Hg (Jun 10, 5:50 pm)
Average62 °F69%29.91 "Hg
* Reported Jun 9 5:20 am — Jun 24 5:20 am, 52°23'59"N, 13°04'00"E. Weather by CustomWeather, © 2024

Note: Actual official high and low records may vary slightly from our data, if they occured in-between our weather recording intervals... More about our weather records

52°23'59"N, 13°04'00"E Weather History for the Previous 24 Hours

Scroll right to see more
 ConditionsComfort  
Time TempWeatherWind HumidityBarometerVisibility
5:20 am
Mon, Jun 24
55 °FScattered clouds.1 mph94%30.12 "HgN/A
4:20 am57 °FPassing clouds.2 mph88%30.12 "HgN/A
3:50 am54 °FPassing clouds.1 mph94%30.12 "HgN/A
3:20 am57 °FClear.2 mph88%30.12 "Hg10 mi
2:50 am55 °FClear.2 mph88%30.12 "Hg10 mi
2:20 am59 °FClear.3 mph82%30.12 "Hg10 mi
1:50 am57 °FClear.3 mph88%30.09 "Hg10 mi
1:20 am59 °FClear.1 mph82%30.09 "Hg10 mi
12:50 am63 °FClear.2 mph73%30.09 "Hg10 mi
12:20 am61 °FClear.5 mph77%30.09 "Hg10 mi
11:50 pm
Sun, Jun 23
61 °FClear.6 mph77%30.09 "Hg10 mi
11:20 pm61 °FClear.5 mph77%30.09 "Hg10 mi
10:50 pm64 °FPassing clouds.3 mph64%30.09 "HgN/A
9:50 pm68 °FClear.6 mph60%30.09 "Hg10 mi
9:20 pm68 °FSunny.6 mph56%30.09 "Hg10 mi
8:50 pm68 °FPassing clouds.8 mph56%30.07 "HgN/A
8:20 pm70 °FSunny.12 mph57%30.07 "Hg10 mi
7:50 pm72 °FPassing clouds.12 mph50%30.07 "HgN/A
7:20 pm72 °FPassing clouds.12 mph50%30.07 "HgN/A
6:50 pm72 °FPassing clouds.12 mph50%30.07 "HgN/A
6:20 pm73 °FPassing clouds.14 mph47%30.04 "HgN/A
5:50 pm73 °FSunny.15 mph47%30.04 "Hg10 mi
5:20 pm73 °FPassing clouds.13 mph47%30.04 "HgN/A
4:20 pm72 °FPassing clouds.15 mph50%30.07 "HgN/A
3:50 pm73 °FPassing clouds.14 mph50%30.04 "HgN/A
3:20 pm73 °FPassing clouds.14 mph53%30.04 "HgN/A
2:50 pm70 °FBroken clouds.16 mph57%30.04 "HgN/A
2:20 pm73 °FScattered clouds.15 mph53%30.04 "HgN/A
1:50 pm72 °FPartly sunny.16 mph53%30.04 "HgN/A
1:20 pm72 °FPartly sunny.17 mph53%30.04 "HgN/A
12:50 pm70 °FPartly sunny.14 mph60%30.04 "HgN/A
12:20 pm70 °FPartly sunny.12 mph57%30.04 "HgN/A
11:50 am72 °FScattered clouds.14 mph53%30.04 "HgN/A
11:20 am70 °FScattered clouds.14 mph57%30.04 "HgN/A
10:50 am68 °FBroken clouds.9 mph60%30.04 "HgN/A
10:20 am66 °FBroken clouds.12 mph64%30.04 "HgN/A
9:50 am68 °FPassing clouds.14 mph60%30.04 "HgN/A
9:20 am66 °FPassing clouds.10 mph68%30.04 "HgN/A
8:50 am66 °FPassing clouds.12 mph64%30.04 "HgN/A
8:20 am64 °FPassing clouds.13 mph68%30.04 "HgN/A
7:50 am63 °FPassing clouds.13 mph68%30.04 "HgN/A
7:20 am63 °FPartly sunny.13 mph64%30.01 "HgN/A
6:50 am61 °FSunny.5 mph88%30.01 "Hg10 mi
6:20 am61 °FSunny.6 mph88%30.01 "Hg10 mi
Weather by CustomWeather, © 2024

See weather overview